Time;durP1;ratioP1;P1;durP2;ratioP2;P2;SDS_P1;SDS_P2;PMS_P1;PMS_P2;Temp;Humidity;BMP_temperature;BMP_pressure;BME280_temperature;BME280_humidity;BME280_pressure;Samples;Min_cycle;Max_cycle;Signal;HPM_P1;HPM_P2
2023/11/07 06:57:36;;;;;;;2.78;1.10;;;;;;;5.87;98.39;96294.13;2091235;27;21435;-70
2023/11/07 06:58:38;;;;;;;4.05;1.40;;;;;;;6.43;95.37;96295.81;2085743;28;20207;-70
2023/11/07 06:59:39;;;;;;;1.88;0.80;;;;;;;6.86;93.02;96302.09;2075532;28;20540;-71
2023/11/07 07:00:42;;;;;;;3.17;1.00;;;;;;;6.97;90.79;96288.75;2075138;28;20197;-70
2023/11/07 07:01:44;;;;;;;3.20;1.00;;;;;;;7.13;90.23;96296.81;2074076;28;20285;-71
2023/11/07 07:02:48;;;;;;;2.60;1.00;;;;;;;7.26;89.46;96294.63;2072224;28;20235;-71
2023/11/07 07:03:50;;;;;;;2.95;0.70;;;;;;;7.52;87.90;96300.59;2070443;28;20222;-71
2023/11/07 07:04:51;;;;;;;4.13;0.90;;;;;;;7.72;86.92;96301.56;2073575;28;20653;-71
2023/11/07 07:05:54;;;;;;;14.60;0.95;;;;;;;7.87;85.79;96290.56;2074610;28;20404;-70
2023/11/07 07:06:56;;;;;;;2.97;1.30;;;;;;;8.00;84.92;96288.34;2074790;28;20182;-71
2023/11/07 07:07:57;;;;;;;2.28;0.80;;;;;;;8.02;84.69;96299.53;2074657;28;20284;-71
2023/11/07 07:08:59;;;;;;;5.82;1.15;;;;;;;7.74;85.71;96297.16;2071184;28;20876;-71
2023/11/07 07:10:01;;;;;;;3.58;0.80;;;;;;;7.42;86.45;96304.44;2073962;28;20204;-71
2023/11/07 07:13:18;;;;;;;2.70;1.10;;;;;;;6.79;89.38;96300.63;2106827;27;20578;-71
2023/11/07 07:14:21;;;;;;;3.25;0.90;;;;;;;7.01;89.65;96294.69;2100090;28;20269;-71
2023/11/07 07:15:23;;;;;;;2.15;0.95;;;;;;;7.59;87.84;96299.47;2099527;28;20201;-70
2023/11/07 07:16:30;;;;;;;4.40;1.00;;;;;;;7.93;85.77;96300.72;2098754;28;20199;-71
2023/11/07 07:17:32;;;;;;;3.22;0.88;;;;;;;8.25;83.66;96301.22;2098026;28;20228;-71
2023/11/07 07:18:34;;;;;;;3.35;0.98;;;;;;;8.50;82.71;96308.03;2096087;28;20200;-70
2023/11/07 07:19:37;;;;;;;2.00;0.80;;;;;;;8.74;81.58;96308.75;2100147;28;20201;-71
2023/11/07 07:20:39;;;;;;;4.30;0.98;;;;;;;8.70;80.89;96298.50;2100120;28;20524;-71
2023/11/07 07:21:40;;;;;;;3.00;0.93;;;;;;;8.95;80.87;96308.72;2097415;28;20283;-71
2023/11/07 07:22:44;;;;;;;3.45;0.90;;;;;;;9.06;80.48;96305.66;2098841;28;20203;-71
2023/11/07 07:23:46;;;;;;;3.30;0.88;;;;;;;9.36;79.23;96311.25;2096102;28;20215;-71
2023/11/07 07:24:48;;;;;;;4.35;1.23;;;;;;;9.45;78.54;96318.66;2097829;28;20195;-70
2023/11/07 07:25:52;;;;;;;1.60;0.90;;;;;;;9.80;77.87;96310.13;2099859;28;20191;-71
2023/11/07 07:26:58;;;;;;;3.35;1.00;;;;;;;9.39;78.53;96312.88;2100983;28;20676;-71
2023/11/07 07:28:00;;;;;;;3.00;1.17;;;;;;;9.42;78.63;96317.94;2098260;28;20195;-71
2023/11/07 07:29:03;;;;;;;2.67;0.90;;;;;;;9.25;78.49;96318.72;2098614;28;20272;-71
2023/11/07 07:30:05;;;;;;;2.22;0.90;;;;;;;9.32;79.01;96310.56;2100697;28;20661;-71
2023/11/07 07:31:07;;;;;;;4.05;1.00;;;;;;;9.11;79.41;96325.38;2100479;28;20195;-71
2023/11/07 07:32:11;;;;;;;2.85;0.90;;;;;;;9.56;78.54;96315.56;2100021;28;20874;-71
2023/11/07 07:33:16;;;;;;;2.67;1.10;;;;;;;9.62;78.00;96317.91;2097203;28;20234;-71
2023/11/07 07:34:18;;;;;;;2.30;1.10;;;;;;;10.10;77.03;96310.44;2099433;28;20222;-71
2023/11/07 07:35:20;;;;;;;2.40;0.80;;;;;;;10.33;75.57;96313.69;2098332;28;20200;-71
2023/11/07 07:36:23;;;;;;;2.00;0.98;;;;;;;10.12;75.68;96315.59;2097126;28;20201;-71
2023/11/07 07:37:24;;;;;;;3.30;1.00;;;;;;;10.21;75.93;96322.97;2100557;28;20195;-71
2023/11/07 07:38:26;;;;;;;4.00;0.95;;;;;;;10.07;75.34;96318.41;2099118;28;20187;-71
2023/11/07 07:39:32;;;;;;;2.60;0.93;;;;;;;9.44;77.73;96308.31;2099722;28;20694;-70
2023/11/07 07:40:36;;;;;;;3.17;0.80;;;;;;;9.13;79.44;96320.13;2100247;28;20192;-71
2023/11/07 07:41:37;;;;;;;3.08;1.00;;;;;;;8.57;81.72;96322.47;2100215;28;20207;-71
2023/11/07 07:42:39;;;;;;;9.13;2.38;;;;;;;8.15;83.01;96328.47;2098656;28;20212;-71
2023/11/07 07:43:40;;;;;;;7.72;1.17;;;;;;;7.80;84.34;96320.34;2097167;28;20202;-71
2023/11/07 07:44:41;;;;;;;2.08;1.02;;;;;;;7.71;85.43;96326.72;2100335;28;20199;-70
2023/11/07 07:45:43;;;;;;;3.63;1.13;;;;;;;7.43;86.65;96322.56;2101402;28;20566;-71
2023/11/07 07:46:46;;;;;;;5.22;1.67;;;;;;;7.41;87.72;96326.13;2100459;28;20236;-71
2023/11/07 07:47:48;;;;;;;4.35;1.20;;;;;;;7.30;87.74;96324.78;2097083;28;20204;-71
2023/11/07 07:48:50;;;;;;;2.38;1.10;;;;;;;7.22;88.12;96333.75;2100615;28;20239;-71
2023/11/07 07:52:44;;;;;;;5.10;1.48;;;;;;;7.02;90.49;96333.56;2085041;28;20561;-70
2023/11/07 07:56:13;;;;;;;9.73;1.40;;;;;;;7.05;91.12;96327.41;2098980;27;20665;-70
2023/11/07 07:59:44;;;;;;;2.45;1.20;;;;;;;6.99;91.23;96322.44;2099009;27;20543;-70
2023/11/07 08:03:09;;;;;;;2.95;1.00;;;;;;;7.02;91.34;96319.72;2102545;27;20908;-70
2023/11/07 08:06:47;;;;;;;2.90;1.15;;;;;;;7.00;91.08;96322.38;2099904;27;20559;-70
2023/11/07 08:10:32;;;;;;;1.40;0.80;;;;;;;7.03;91.03;96330.06;2090780;28;20555;-70
2023/11/07 08:13:53;;;;;;;3.70;0.90;;;;;;;7.10;90.76;96327.25;2073276;28;20573;-70
2023/11/07 08:17:27;;;;;;;9.68;1.10;;;;;;;7.09;91.14;96333.34;2092835;27;20584;-70
2023/11/07 08:20:46;;;;;;;3.35;0.90;;;;;;;7.12;91.20;96333.22;2090737;27;21263;-70
2023/11/07 08:36:04;;;;;;;2.65;0.73;;;;;;;6.88;96.50;96345.31;2083012;28;20575;-70
2023/11/07 08:37:05;;;;;;;1.90;0.80;;;;;;;6.88;96.70;96334.94;2081648;28;20217;-71
2023/11/07 08:39:45;;;;;;;4.05;1.25;;;;;;;7.03;96.01;96345.66;2083385;28;20563;-71
2023/11/07 08:40:47;;;;;;;4.03;0.90;;;;;;;7.14;95.92;96339.22;2085826;28;20189;-71
2023/11/07 08:41:50;;;;;;;2.08;1.20;;;;;;;7.27;94.57;96337.88;2085995;28;20200;-71
2023/11/07 08:42:52;;;;;;;4.20;0.88;;;;;;;7.73;92.67;96350.06;2083498;28;20235;-71
2023/11/07 08:43:54;;;;;;;2.30;0.93;;;;;;;8.23;90.74;96343.78;2080138;28;20314;-71
2023/11/07 08:44:55;;;;;;;2.92;0.90;;;;;;;8.79;88.22;96348.44;2077123;28;20276;-71
2023/11/07 08:45:57;;;;;;;9.32;0.93;;;;;;;9.29;85.78;96339.38;2076358;28;20958;-71
2023/11/07 08:46:58;;;;;;;3.20;0.90;;;;;;;10.48;81.65;96335.63;2084555;28;20594;-71
2023/11/07 08:48:00;;;;;;;3.15;1.10;;;;;;;11.32;78.19;96345.31;2083675;28;20640;-71
2023/11/07 08:49:01;;;;;;;2.00;0.90;;;;;;;11.95;75.48;96343.72;2076946;28;20243;-71
2023/11/07 08:50:03;;;;;;;3.35;0.90;;;;;;;12.21;73.95;96342.31;2076660;28;20614;-72
2023/11/07 08:51:05;;;;;;;2.00;0.70;;;;;;;12.14;72.20;96346.19;2077444;28;20279;-71
2023/11/07 08:52:07;;;;;;;3.25;0.90;;;;;;;12.18;72.56;96341.63;2077323;28;20796;-72
2023/11/07 08:53:09;;;;;;;2.05;0.77;;;;;;;13.14;70.90;96341.38;2077812;28;20293;-72
2023/11/07 08:54:11;;;;;;;3.05;0.90;;;;;;;13.23;70.21;96346.91;2070729;28;20341;-72
2023/11/07 08:55:13;;;;;;;1.73;0.77;;;;;;;12.69;71.17;96342.19;2076653;28;20254;-72
2023/11/07 08:56:15;;;;;;;6.22;1.00;;;;;;;12.73;71.47;96341.13;2076930;28;20189;-72
2023/11/07 08:57:17;;;;;;;8.07;0.80;;;;;;;12.75;70.77;96343.63;2076395;28;20256;-72
2023/11/07 08:58:19;;;;;;;2.10;0.80;;;;;;;11.91;71.83;96342.22;2076553;28;20190;-72
2023/11/07 08:59:21;;;;;;;3.17;0.77;;;;;;;11.29;73.36;96345.50;2074094;28;20217;-72
2023/11/07 09:00:23;;;;;;;1.38;0.70;;;;;;;11.29;73.36;96345.50;2076999;28;20458;-72
2023/11/07 09:01:25;;;;;;;3.15;0.80;;;;;;;10.40;78.08;96338.59;2074669;28;20709;-72
2023/11/07 09:02:26;;;;;;;1.20;0.60;;;;;;;9.78;79.68;96348.47;2075627;28;20561;-72
2023/11/07 09:03:29;;;;;;;2.10;0.80;;;;;;;9.66;80.51;96339.44;2077168;28;20205;-71
2023/11/07 09:04:30;;;;;;;1.77;0.80;;;;;;;9.30;81.13;96350.63;2076154;28;20221;-71
2023/11/07 09:05:32;;;;;;;2.20;0.70;;;;;;;9.22;83.04;96352.69;2077332;28;20219;-72
2023/11/07 09:06:35;;;;;;;5.32;0.80;;;;;;;9.03;83.69;96358.72;2077016;28;20576;-72
2023/11/07 09:07:39;;;;;;;3.55;0.85;;;;;;;9.01;84.36;96359.72;2074030;28;20218;-71
2023/11/07 09:08:40;;;;;;;8.20;0.80;;;;;;;8.91;84.18;96357.50;2074393;28;20229;-71
2023/11/07 09:09:45;;;;;;;4.18;0.82;;;;;;;8.86;84.67;96356.81;2074574;28;20310;-71
2023/11/07 09:10:47;;;;;;;1.85;0.68;;;;;;;8.78;85.54;96356.31;2076779;28;20600;-71
2023/11/07 09:11:49;;;;;;;2.53;0.80;;;;;;;8.63;85.27;96365.59;2076473;28;20229;-71
2023/11/07 09:12:53;;;;;;;4.97;0.80;;;;;;;8.61;84.22;96360.47;2077203;28;20729;-72
2023/11/07 09:13:55;;;;;;;5.20;0.70;;;;;;;8.55;85.72;96368.53;2077277;28;20196;-72
2023/11/07 09:14:56;;;;;;;2.08;0.70;;;;;;;8.49;85.28;96364.44;2076883;28;20280;-71
2023/11/07 09:16:00;;;;;;;1.88;0.80;;;;;;;8.44;86.03;96366.34;2076462;28;20202;-71
2023/11/07 09:17:02;;;;;;;1.65;0.70;;;;;;;8.37;85.34;96369.22;2075989;28;20191;-71
2023/11/07 09:18:03;;;;;;;2.28;0.80;;;;;;;8.34;86.34;96360.66;2076135;28;20193;-71
2023/11/07 09:19:05;;;;;;;2.40;0.75;;;;;;;8.40;85.78;96369.13;2075371;28;20230;-71
2023/11/07 09:20:14;;;;;;;2.97;0.80;;;;;;;8.42;85.08;96369.94;2077709;28;20211;-71
2023/11/07 09:21:17;;;;;;;4.15;0.80;;;;;;;8.40;85.31;96358.72;2076187;28;20653;-71
2023/11/07 09:22:18;;;;;;;2.75;0.80;;;;;;;8.44;85.42;96366.34;2077133;28;20189;-71
2023/11/07 09:23:20;;;;;;;2.88;0.90;;;;;;;8.46;85.36;96366.31;2076518;28;20273;-71
2023/11/07 09:24:24;;;;;;;2.53;0.82;;;;;;;8.39;85.01;96368.25;2075880;28;20221;-71
2023/11/07 09:25:25;;;;;;;2.58;0.88;;;;;;;8.36;85.36;96363.19;2076655;28;20215;-71
2023/11/07 09:26:27;;;;;;;3.35;1.08;;;;;;;8.38;84.66;96368.34;2075754;28;20186;-71
2023/11/07 09:27:28;;;;;;;2.95;0.75;;;;;;;8.42;84.95;96362.94;2077619;28;20701;-71
2023/11/07 09:28:30;;;;;;;3.58;0.80;;;;;;;8.40;84.34;96358.72;2074926;28;20546;-71
2023/11/07 09:29:32;;;;;;;4.50;1.05;;;;;;;8.43;84.20;96372.47;2076071;28;20217;-71
2023/11/07 09:30:33;;;;;;;1.77;0.77;;;;;;;8.44;83.95;96376.75;2077179;28;20202;-71
2023/11/07 09:31:35;;;;;;;1.67;0.80;;;;;;;8.48;84.60;96377.50;2077307;28;20202;-71
2023/11/07 09:32:37;;;;;;;4.32;0.70;;;;;;;8.53;83.74;96375.53;2076663;28;20221;-71
2023/11/07 09:33:39;;;;;;;1.50;0.70;;;;;;;8.59;83.96;96380.50;2077081;28;20557;-71
2023/11/07 09:34:40;;;;;;;3.58;1.08;;;;;;;8.63;84.54;96376.88;2071954;28;20219;-71
2023/11/07 09:35:42;;;;;;;4.50;0.80;;;;;;;8.69;83.99;96380.16;2075016;28;20194;-71
2023/11/07 09:36:44;;;;;;;7.40;0.98;;;;;;;8.65;83.24;96377.66;2077227;28;20213;-71
2023/11/07 09:37:46;;;;;;;2.58;0.70;;;;;;;8.60;82.52;96368.34;2076723;28;20645;-71
2023/11/07 09:38:50;;;;;;;1.95;0.85;;;;;;;8.75;83.04;96382.50;2072519;28;21034;-70
2023/11/07 09:39:54;;;;;;;1.95;0.70;;;;;;;8.91;83.47;96383.56;2076361;28;20730;-71
2023/11/07 09:40:57;;;;;;;2.42;1.25;;;;;;;8.87;82.09;96375.91;2078239;28;20281;-71
2023/11/07 09:41:59;;;;;;;2.45;0.85;;;;;;;8.89;82.26;96382.75;2078086;28;20280;-71
2023/11/07 09:43:02;;;;;;;1.50;0.70;;;;;;;8.85;82.53;96385.53;2075061;28;20217;-71
2023/11/07 09:44:03;;;;;;;3.25;0.90;;;;;;;8.73;82.28;96377.34;2075624;28;20595;-71
2023/11/07 09:45:10;;;;;;;2.67;0.85;;;;;;;8.72;83.41;96380.00;2076612;28;20289;-71
2023/11/07 09:46:14;;;;;;;1.38;0.70;;;;;;;8.75;83.50;96379.91;2076599;28;20191;-71
2023/11/07 09:47:16;;;;;;;2.40;0.80;;;;;;;8.90;83.84;96387.06;2077395;28;20588;-71
2023/11/07 09:48:21;;;;;;;3.13;0.80;;;;;;;8.86;83.24;96369.84;2076051;28;20190;-72
2023/11/07 09:49:23;;;;;;;1.85;0.80;;;;;;;8.91;83.11;96383.56;2075123;28;20209;-71
2023/11/07 09:50:25;;;;;;;1.30;0.70;;;;;;;8.78;82.99;96383.19;2074916;28;20247;-71
2023/11/07 09:51:27;;;;;;;3.75;0.70;;;;;;;8.72;82.67;96377.41;2070968;28;20197;-71
2023/11/07 09:52:30;;;;;;;1.83;0.75;;;;;;;8.62;82.71;96383.00;2071275;28;20194;-71
2023/11/07 09:53:33;;;;;;;1.52;0.60;;;;;;;8.55;82.96;96378.09;2071262;28;20662;-71
2023/11/07 09:54:37;;;;;;;1.65;0.70;;;;;;;8.52;82.86;96375.63;2070527;28;20226;-71
2023/11/07 09:55:39;;;;;;;2.00;0.80;;;;;;;8.52;83.80;96376.47;2071721;28;20190;-71
2023/11/07 09:56:40;;;;;;;1.45;0.60;;;;;;;8.53;83.57;96372.94;2071493;28;20205;-71
2023/11/07 09:57:58;;;;;;;1.42;0.70;;;;;;;8.52;83.53;96375.63;2071861;28;20186;-72
2023/11/07 09:59:29;;;;;;;2.58;0.70;;;;;;;8.44;83.01;96368.09;2069954;28;20769;-71
2023/11/07 10:00:33;;;;;;;1.85;0.70;;;;;;;8.51;83.36;96382.59;2070445;28;20182;-71
2023/11/07 10:01:35;;;;;;;3.92;0.80;;;;;;;8.47;84.38;96379.25;2071475;28;20199;-71
2023/11/07 10:02:37;;;;;;;2.40;0.80;;;;;;;8.58;84.50;96383.19;2070513;28;20198;-71
2023/11/07 10:03:41;;;;;;;2.42;0.80;;;;;;;8.57;84.57;96376.28;2070656;28;20218;-71
2023/11/07 10:04:47;;;;;;;2.85;0.90;;;;;;;8.57;83.71;96378.88;2071126;28;20225;-70
2023/11/07 10:05:51;;;;;;;1.27;0.70;;;;;;;8.49;83.86;96371.38;2070091;28;20201;-71
2023/11/07 10:06:53;;;;;;;2.65;0.90;;;;;;;8.52;84.77;96378.22;2070052;28;20198;-71
2023/11/07 10:07:57;;;;;;;2.67;0.82;;;;;;;8.52;84.49;96380.81;2071101;28;20402;-71
2023/11/07 10:08:58;;;;;;;1.70;0.70;;;;;;;8.54;84.95;96373.81;2071435;28;20263;-71
2023/11/07 10:10:05;;;;;;;1.88;0.68;;;;;;;8.52;84.07;96384.28;2069053;28;20202;-71
2023/11/07 10:11:11;;;;;;;3.60;0.60;;;;;;;8.52;84.67;96378.22;2071286;28;20664;-71
2023/11/07 10:12:14;;;;;;;4.10;1.00;;;;;;;8.61;84.84;96383.91;2071686;28;20189;-71
2023/11/07 10:13:16;;;;;;;2.65;1.05;;;;;;;8.54;84.79;96382.44;2071750;28;20202;-71
2023/11/07 10:14:18;;;;;;;1.75;0.70;;;;;;;8.58;84.56;96384.03;2070087;28;20219;-71
2023/11/07 10:15:24;;;;;;;1.30;0.70;;;;;;;8.59;84.45;96388.31;2071106;28;20190;-71
2023/11/07 10:16:44;;;;;;;3.45;0.77;;;;;;;8.66;84.43;96384.56;2069344;28;20191;-71
2023/11/07 10:18:04;;;;;;;6.90;0.95;;;;;;;8.70;85.17;96387.88;2071602;28;20182;-71
2023/11/07 10:19:07;;;;;;;1.73;0.90;;;;;;;8.72;85.00;96388.66;2069874;28;20245;-71
2023/11/07 10:20:11;;;;;;;2.72;0.98;;;;;;;8.77;84.96;96381.53;2070237;28;20549;-71
2023/11/07 10:21:13;;;;;;;3.90;0.70;;;;;;;8.76;83.65;96387.63;2069788;28;20198;-71
2023/11/07 10:22:15;;;;;;;2.03;0.70;;;;;;;8.71;83.60;96386.97;2071102;28;20186;-72
2023/11/07 10:23:17;;;;;;;3.63;1.20;;;;;;;8.69;83.96;96387.97;2071298;28;20763;-71
2023/11/07 10:24:19;;;;;;;1.80;0.70;;;;;;;8.57;83.62;96387.53;2070773;28;20713;-71
2023/11/07 10:25:29;;;;;;;2.17;0.68;;;;;;;8.49;84.20;96390.47;2071550;28;20317;-71
2023/11/07 10:26:31;;;;;;;2.60;0.90;;;;;;;8.48;84.47;96380.09;2069669;28;20712;-71
2023/11/07 10:27:32;;;;;;;3.35;0.93;;;;;;;8.48;85.68;96395.72;2068998;28;20191;-72
2023/11/07 10:28:34;;;;;;;2.03;0.75;;;;;;;8.51;86.03;96393.00;2068840;28;20202;-72
2023/11/07 10:29:48;;;;;;;2.13;1.00;;;;;;;8.49;85.72;96387.88;2068383;28;20227;-71
2023/11/07 10:30:59;;;;;;;1.58;0.70;;;;;;;8.46;85.59;96392.34;2072031;28;20720;-71
2023/11/07 10:32:10;;;;;;;3.47;0.70;;;;;;;8.47;85.85;96399.25;2071758;28;20279;-73
2023/11/07 10:33:23;;;;;;;2.40;0.80;;;;;;;8.39;85.26;96402.09;2071144;28;20217;-71
2023/11/07 10:34:26;;;;;;;2.15;0.80;;;;;;;8.37;85.43;96393.53;2070828;28;20815;-71
2023/11/07 10:35:27;;;;;;;5.05;0.80;;;;;;;8.29;86.11;96398.16;2078279;28;20295;-71
2023/11/07 10:36:38;;;;;;;2.85;0.60;;;;;;;8.13;85.79;96396.16;2077493;28;20198;-70
2023/11/07 10:37:40;;;;;;;1.40;0.60;;;;;;;8.07;84.78;96401.59;2071466;28;20196;-71
2023/11/07 10:38:41;;;;;;;1.50;0.60;;;;;;;8.00;86.00;96407.97;2071527;28;20646;-70
2023/11/07 11:11:51;;;;;;;1.10;0.60;;;;;;;6.80;90.50;96403.53;2084151;28;20577;-70
2023/11/07 11:14:35;;;;;;;2.47;0.60;;;;;;;6.80;89.18;96400.94;2078062;27;20559;-71
2023/11/07 11:15:37;;;;;;;1.20;0.50;;;;;;;6.85;89.18;96399.03;2076215;28;20194;-70
2023/11/07 11:16:40;;;;;;;1.00;0.50;;;;;;;6.91;89.63;96405.78;2077472;28;20197;-71
2023/11/07 11:18:01;;;;;;;1.20;0.50;;;;;;;6.92;88.19;96399.69;2078081;28;20221;-70
2023/11/07 11:19:16;;;;;;;2.40;1.50;;;;;;;6.93;87.57;96397.94;2065698;28;20197;-71
2023/11/07 11:20:28;;;;;;;4.30;0.60;;;;;;;6.99;87.84;96395.97;2077970;28;20281;-71
2023/11/07 11:22:16;;;;;;;1.20;0.50;;;;;;;7.09;87.38;96396.50;2075258;28;20198;-70
2023/11/07 11:23:24;;;;;;;1.00;0.50;;;;;;;7.19;87.15;96389.25;2077106;28;20195;-71
2023/11/07 11:24:38;;;;;;;1.10;0.60;;;;;;;7.34;86.63;96398.25;2077200;28;20212;-70
2023/11/07 11:26:14;;;;;;;1.10;0.50;;;;;;;7.58;86.45;96393.91;2079632;28;20190;-70
2023/11/07 11:27:33;;;;;;;1.75;0.50;;;;;;;7.79;85.56;96391.41;2077906;28;20189;-71
2023/11/07 11:28:39;;;;;;;1.23;0.52;;;;;;;8.08;84.54;96392.91;2082530;28;20220;-71
2023/11/07 11:29:49;;;;;;;1.63;0.50;;;;;;;8.24;82.49;96398.38;2073551;28;20244;-70
2023/11/07 11:30:54;;;;;;;1.95;0.60;;;;;;;8.69;81.26;96387.97;2075080;28;20311;-71
2023/11/07 11:31:56;;;;;;;1.35;0.60;;;;;;;8.76;80.00;96386.78;2082774;28;20199;-71
2023/11/07 11:33:09;;;;;;;1.10;0.60;;;;;;;9.31;79.54;96389.63;2074040;28;20215;-71
2023/11/07 11:34:25;;;;;;;1.10;0.50;;;;;;;9.87;76.58;96387.16;2072123;28;20668;-71
2023/11/07 11:35:28;;;;;;;1.25;0.77;;;;;;;10.42;75.81;96383.78;2075492;28;21078;-71
2023/11/07 11:36:38;;;;;;;1.00;0.50;;;;;;;10.48;74.03;96394.84;2075647;28;20250;-71
2023/11/07 11:38:09;;;;;;;1.52;0.70;;;;;;;10.94;73.13;96377.75;2076782;28;20255;-72
2023/11/07 11:39:26;;;;;;;1.20;0.75;;;;;;;11.51;72.36;96378.34;2074283;28;20217;-71
2023/11/07 11:40:55;;;;;;;2.65;0.50;;;;;;;11.47;70.59;96377.66;2076646;28;20189;-71
2023/11/07 11:41:58;;;;;;;1.15;0.60;;;;;;;11.05;71.27;96371.13;2076206;28;20633;-71
2023/11/07 11:43:03;;;;;;;1.10;0.50;;;;;;;11.32;70.94;96370.63;2078124;28;20388;-72
2023/11/07 11:44:15;;;;;;;1.30;0.60;;;;;;;11.64;69.79;96378.53;2068682;28;20313;-71
2023/11/07 11:45:26;;;;;;;1.00;0.50;;;;;;;12.04;69.81;96379.03;2074908;28;20193;-71
2023/11/07 11:46:46;;;;;;;1.60;0.70;;;;;;;12.64;68.05;96374.84;2075223;28;20272;-72
2023/11/07 11:47:49;;;;;;;1.00;0.50;;;;;;;12.58;67.25;96370.78;2073812;28;20190;-72
2023/11/07 11:49:05;;;;;;;1.10;0.60;;;;;;;13.22;66.44;96370.59;2072112;28;20194;-71
2023/11/07 11:50:14;;;;;;;1.30;0.60;;;;;;;13.26;65.94;96381.75;2071216;28;20201;-73
2023/11/07 11:51:36;;;;;;;1.15;0.50;;;;;;;12.10;67.50;96376.09;2074116;28;20206;-71
2023/11/07 11:52:39;;;;;;;1.58;0.50;;;;;;;11.87;69.58;96378.16;2074494;28;20710;-71
2023/11/07 11:53:46;;;;;;;1.23;0.70;;;;;;;12.04;68.78;96376.44;2075267;28;20224;-71
2023/11/07 11:54:52;;;;;;;1.45;0.50;;;;;;;11.58;70.53;96374.50;2074228;28;20246;-72
2023/11/07 11:55:59;;;;;;;1.20;0.60;;;;;;;11.39;71.10;96372.00;2072491;28;20207;-71
2023/11/07 11:57:00;;;;;;;1.58;0.50;;;;;;;11.29;71.35;96382.09;2072660;28;20728;-71
2023/11/07 11:58:20;;;;;;;1.65;0.60;;;;;;;11.12;72.50;96372.47;2071825;28;20239;-72
2023/11/07 11:59:28;;;;;;;1.10;0.50;;;;;;;10.45;73.47;96370.56;2071028;28;20312;-72
2023/11/07 12:00:37;;;;;;;1.20;0.60;;;;;;;10.14;75.75;96371.13;2074855;28;20201;-72
2023/11/07 12:02:03;;;;;;;1.63;0.60;;;;;;;10.08;75.79;96371.44;2074750;28;20797;-71
2023/11/07 12:03:19;;;;;;;1.42;0.68;;;;;;;9.87;76.79;96373.28;2072827;28;20189;-71
2023/11/07 12:04:51;;;;;;;1.30;0.50;;;;;;;9.57;77.58;96379.84;2073815;28;20220;-72
2023/11/07 12:06:04;;;;;;;3.40;0.60;;;;;;;9.27;78.68;96369.00;2071793;28;20871;-71
2023/11/07 12:07:06;;;;;;;1.67;0.60;;;;;;;9.19;78.80;96382.34;2072981;28;20229;-71
2023/11/07 12:08:35;;;;;;;1.65;0.60;;;;;;;9.21;79.27;96377.91;2070586;28;20206;-71
2023/11/07 12:09:38;;;;;;;1.50;0.60;;;;;;;9.20;79.56;96378.00;2071989;28;20213;-71
2023/11/07 12:10:54;;;;;;;1.10;0.50;;;;;;;9.30;79.37;96381.88;2073352;28;20193;-71
2023/11/07 12:11:56;;;;;;;1.70;0.70;;;;;;;9.51;78.71;96376.63;2074818;28;20916;-71
2023/11/07 12:12:57;;;;;;;1.10;0.60;;;;;;;10.22;77.06;96376.84;2073670;28;20251;-71
2023/11/07 12:14:01;;;;;;;1.23;0.60;;;;;;;11.04;74.42;96375.47;2068464;28;20706;-71
2023/11/07 12:15:03;;;;;;;1.10;0.60;;;;;;;11.32;72.83;96375.84;2072866;28;20243;-71
2023/11/07 12:16:13;;;;;;;1.38;0.63;;;;;;;12.08;70.97;96365.69;2072415;28;20198;-71
2023/11/07 12:17:16;;;;;;;1.20;0.60;;;;;;;12.34;69.99;96375.63;2070736;28;20197;-72
2023/11/07 12:18:21;;;;;;;1.65;0.80;;;;;;;11.17;71.69;96367.03;2073982;28;20197;-71
2023/11/07 12:19:28;;;;;;;1.00;0.50;;;;;;;10.38;74.23;96373.53;2073982;28;20230;-71
2023/11/07 12:20:39;;;;;;;1.10;0.50;;;;;;;10.23;75.85;96369.84;2072364;28;20190;-72
2023/11/07 12:21:43;;;;;;;1.55;0.70;;;;;;;10.03;76.20;96363.84;2071402;28;20198;-71
2023/11/07 12:22:46;;;;;;;5.13;2.67;;;;;;;9.93;77.09;96368.63;2073094;28;20189;-75
2023/11/07 12:23:55;;;;;;;4.72;3.13;;;;;;;9.91;78.02;96370.44;2072533;28;20194;-74
2023/11/07 12:25:06;;;;;;;5.20;2.78;;;;;;;9.90;77.64;96373.13;2072971;28;20224;-73
2023/11/07 12:26:08;;;;;;;1.38;0.60;;;;;;;9.85;77.92;96362.91;2067008;28;20205;-73
2023/11/07 12:27:19;;;;;;;1.20;0.60;;;;;;;9.67;76.64;96362.00;2066983;28;20265;-73
2023/11/07 12:28:20;;;;;;;2.30;0.60;;;;;;;9.69;77.01;96361.91;2070252;28;20209;-73
2023/11/07 12:29:33;;;;;;;1.00;0.50;;;;;;;9.52;77.88;96363.53;2068478;28;20218;-73
2023/11/07 12:30:34;;;;;;;4.43;0.68;;;;;;;9.50;78.36;96369.72;2067160;28;20253;-73
2023/11/07 12:31:37;;;;;;;2.38;0.70;;;;;;;9.54;79.52;96371.31;2067114;28;20385;-73
2023/11/07 12:32:39;;;;;;;1.33;0.70;;;;;;;9.63;78.39;96371.72;2068884;28;20190;-73
2023/11/07 12:33:42;;;;;;;1.20;0.60;;;;;;;9.52;77.47;96370.50;2068135;28;20709;-73
2023/11/07 12:34:46;;;;;;;1.70;0.60;;;;;;;9.45;76.56;96367.34;2064507;28;20226;-73
2023/11/07 12:35:54;;;;;;;1.20;0.50;;;;;;;9.43;77.28;96363.94;2065931;28;20194;-73
2023/11/07 12:36:57;;;;;;;1.10;0.57;;;;;;;9.43;77.88;96359.59;2067689;28;20203;-73
2023/11/07 12:38:01;;;;;;;1.30;0.60;;;;;;;9.55;77.03;96363.41;2067659;28;20708;-73
2023/11/07 12:39:03;;;;;;;1.48;0.60;;;;;;;9.59;77.64;96364.94;2067019;28;20230;-74
2023/11/07 12:40:06;;;;;;;2.20;0.57;;;;;;;9.69;77.29;96359.31;2068475;28;20692;-73
2023/11/07 12:41:10;;;;;;;1.10;0.60;;;;;;;10.05;76.67;96354.16;2068686;28;20257;-73
2023/11/07 12:42:13;;;;;;;1.50;0.70;;;;;;;10.34;76.23;96359.75;2068439;28;20198;-73
2023/11/07 12:43:15;;;;;;;1.27;0.60;;;;;;;10.22;74.96;96353.38;2070844;28;20255;-73
2023/11/07 12:44:17;;;;;;;1.00;0.60;;;;;;;10.25;75.39;96361.03;2069032;28;20221;-73
2023/11/07 12:45:28;;;;;;;1.00;0.50;;;;;;;10.49;74.35;96352.97;2068409;28;20284;-73
2023/11/07 12:46:34;;;;;;;1.00;0.50;;;;;;;10.50;74.24;96353.81;2065588;28;20194;-73
2023/11/07 12:47:36;;;;;;;1.40;0.60;;;;;;;10.27;74.69;96356.59;2067940;28;20195;-73
2023/11/07 12:48:37;;;;;;;1.73;0.60;;;;;;;10.11;76.02;96347.81;2067263;28;20198;-73
2023/11/07 12:49:39;;;;;;;2.22;0.82;;;;;;;9.95;77.17;96360.72;2066217;28;20922;-73
2023/11/07 12:50:46;;;;;;;1.80;0.70;;;;;;;9.88;76.64;96354.09;2068547;28;20190;-73
2023/11/07 12:51:49;;;;;;;1.30;0.60;;;;;;;9.79;77.31;96351.00;2069148;28;20251;-73
2023/11/07 12:52:58;;;;;;;1.58;0.60;;;;;;;9.60;77.80;96353.63;2067131;28;20194;-73
2023/11/07 12:54:03;;;;;;;5.35;2.08;;;;;;;9.45;77.84;96368.19;2068740;28;20193;-74
2023/11/07 12:55:21;;;;;;;5.38;2.15;;;;;;;9.27;78.00;96366.41;2068218;28;20241;-74
2023/11/07 12:56:24;;;;;;;1.25;0.50;;;;;;;9.04;78.08;96357.81;2067149;28;20202;-73
2023/11/07 12:57:36;;;;;;;1.10;0.50;;;;;;;8.95;78.77;96346.03;2064186;28;20202;-72
2023/11/07 12:58:38;;;;;;;1.63;0.60;;;;;;;8.91;79.09;96356.66;2069375;28;20646;-72
2023/11/07 12:59:57;;;;;;;1.20;0.57;;;;;;;8.82;79.56;96358.75;2067021;28;20631;-73
2023/11/07 13:01:03;;;;;;;1.55;0.60;;;;;;;8.87;79.99;96358.53;2066843;28;20206;-73
2023/11/07 13:02:05;;;;;;;1.00;0.50;;;;;;;8.82;79.34;96350.06;2068179;28;20215;-73
2023/11/07 13:03:09;;;;;;;1.10;0.50;;;;;;;8.72;79.70;96354.81;2067814;28;20263;-73
2023/11/07 13:04:13;;;;;;;1.23;0.70;;;;;;;8.75;80.41;96359.06;2066126;28;20289;-73
2023/11/07 13:05:15;;;;;;;1.95;0.60;;;;;;;8.79;81.28;96358.03;2068334;28;20195;-73
2023/11/07 13:06:20;;;;;;;1.40;0.60;;;;;;;8.76;81.35;96343.38;2066648;28;20202;-73
2023/11/07 13:07:22;;;;;;;3.08;0.70;;;;;;;8.71;81.53;96328.84;2065614;28;20252;-74
2023/11/07 13:08:28;;;;;;;1.95;0.75;;;;;;;8.77;80.36;96357.22;2067890;28;20202;-73
2023/11/07 13:09:32;;;;;;;1.42;0.60;;;;;;;8.73;80.45;96363.47;2065777;28;20233;-72
2023/11/07 13:10:35;;;;;;;1.77;0.70;;;;;;;8.72;81.22;96364.38;2066960;28;20194;-73
2023/11/07 13:11:39;;;;;;;2.63;0.80;;;;;;;8.75;80.86;96356.47;2067102;28;20197;-73
2023/11/07 13:12:44;;;;;;;1.20;0.60;;;;;;;8.73;81.12;96360.88;2067458;28;20222;-73
2023/11/07 13:13:48;;;;;;;3.05;0.90;;;;;;;8.74;81.29;96358.19;2066128;28;20582;-73
2023/11/07 13:14:50;;;;;;;3.08;1.17;;;;;;;8.83;81.08;96363.00;2061516;28;20222;-73
2023/11/07 13:15:52;;;;;;;7.80;1.38;;;;;;;8.81;81.43;96356.19;2067411;28;20698;-73
2023/11/07 13:16:54;;;;;;;2.95;1.20;;;;;;;8.78;81.69;96362.38;2066447;28;20194;-74
2023/11/07 13:18:01;;;;;;;5.28;0.88;;;;;;;8.71;81.71;96357.47;2067010;28;20281;-73
2023/11/07 13:19:03;;;;;;;1.20;0.60;;;;;;;8.67;81.35;96356.75;2065538;28;20201;-73
2023/11/07 13:20:10;;;;;;;1.90;0.77;;;;;;;8.58;81.69;96368.44;2066166;28;20194;-74
2023/11/07 13:21:12;;;;;;;2.15;0.90;;;;;;;8.54;81.99;96355.59;2067948;28;20213;-73